createdAt,value
2023-02-01T00:00:34.455Z,100499.56
2023-02-01T00:03:04.508Z,100515.16
2023-02-01T00:05:36.524Z,100519.25
2023-02-01T00:08:07.652Z,100521.69
2023-02-01T00:10:38.284Z,100521.38
2023-02-01T00:13:10.210Z,100513.00
2023-02-01T00:15:40.724Z,100517.25
2023-02-01T00:18:10.607Z,100505.63
2023-02-01T00:20:48.457Z,100504.31
2023-02-01T00:23:18.987Z,100521.75
2023-02-01T00:25:48.932Z,100511.75
2023-02-01T00:28:19.196Z,100518.81
2023-02-01T00:30:49.597Z,100514.72
2023-02-01T00:33:20.163Z,100522.97
2023-02-01T00:35:52.146Z,100521.31
2023-02-01T00:38:22.704Z,100519.19
2023-02-01T00:40:53.244Z,100515.97
2023-02-01T00:43:23.472Z,100513.97
2023-02-01T00:45:54.083Z,100508.38
2023-02-01T00:48:23.909Z,100494.44
2023-02-01T00:50:56.706Z,100482.94
2023-02-01T00:53:26.826Z,100495.72
2023-02-01T00:55:57.765Z,100496.56
2023-02-01T00:58:28.906Z,100499.50
2023-02-01T01:01:08.005Z,100494.38
2023-02-01T01:03:41.732Z,100487.97
2023-02-01T01:06:16.268Z,100490.78
2023-02-01T01:08:46.985Z,100489.97
2023-02-01T01:11:20.137Z,100489.97
2023-02-01T01:13:51.942Z,100492.28
2023-02-01T01:16:23.822Z,100475.88
2023-02-01T01:18:54.774Z,100482.63
2023-02-01T01:21:26.956Z,100458.66
2023-02-01T01:23:57.346Z,100457.03
2023-02-01T01:26:30.221Z,100461.81
2023-02-01T01:29:02.499Z,100450.97
2023-02-01T01:31:33.569Z,100460.47
2023-02-01T01:34:04.581Z,100429.00
2023-02-01T01:36:36.788Z,100426.56
2023-02-01T01:39:07.409Z,100427.72
2023-02-01T01:41:38.167Z,100430.16
2023-02-01T01:44:30.239Z,100422.94
2023-02-01T01:47:03.177Z,100429.34
2023-02-01T01:49:33.755Z,100423.75
2023-02-01T01:52:06.775Z,100424.09
2023-02-01T01:54:42.584Z,100435.94
2023-02-01T01:57:20.459Z,100434.63
2023-02-01T01:59:56.620Z,100430.19
2023-02-01T02:02:29.334Z,100432.19
2023-02-01T02:04:59.963Z,100433.34
2023-02-01T02:10:12.757Z,100444.16
2023-02-01T02:12:45.742Z,100448.91
2023-02-01T02:15:19.760Z,100433.81
2023-02-01T02:18:17.726Z,100429.41
2023-02-01T02:21:15.699Z,100424.47
2023-02-01T02:24:30.595Z,100430.25
2023-02-01T02:27:36.431Z,100441.09
2023-02-01T02:30:55.178Z,100425.38
2023-02-01T02:34:01.799Z,100419.34
2023-02-01T02:36:47.142Z,100414.94
2023-02-01T02:39:31.174Z,100419.34
2023-02-01T02:42:28.545Z,100420.16
2023-02-01T02:45:24.580Z,100409.34
2023-02-01T02:48:11.165Z,100407.25
2023-02-01T02:51:07.308Z,100402.47
2023-02-01T02:54:18.491Z,100387.72
2023-02-01T02:57:05.478Z,100398.06
2023-02-01T02:59:55.919Z,100405.59
2023-02-01T03:02:45.310Z,100422.31
2023-02-01T03:08:15.964Z,100427.75
2023-02-01T03:10:57.863Z,100476.66
2023-02-01T03:13:40.187Z,100461.88
2023-02-01T03:16:27.803Z,100436.78
2023-02-01T03:19:05.261Z,100465.50
2023-02-01T03:21:41.995Z,100469.94
2023-02-01T03:24:19.833Z,100465.16
2023-02-01T03:26:58.368Z,100446.47
2023-02-01T03:29:38.697Z,100448.91
2023-02-01T03:32:11.356Z,100452.84
2023-02-01T03:34:42.302Z,100451.22
2023-02-01T03:37:16.447Z,100463.66
2023-02-01T03:39:55.990Z,100466.78
2023-02-01T03:42:34.454Z,100454.84
2023-02-01T03:45:13.803Z,100463.19
2023-02-01T03:47:48.399Z,100462.38
2023-02-01T03:50:21.731Z,100461.56
2023-02-01T03:52:59.017Z,100441.56
2023-02-01T03:55:33.511Z,100436.00
2023-02-01T03:58:11.401Z,100441.88
2023-02-01T04:00:41.744Z,100450.94
2023-02-01T04:03:12.662Z,100460.78
2023-02-01T04:05:43.102Z,100464.25
2023-02-01T04:08:13.312Z,100457.38
2023-02-01T04:10:45.518Z,100451.31
2023-02-01T04:13:16.423Z,100444.44
2023-02-01T04:15:47.222Z,100421.31
2023-02-01T04:18:17.917Z,100433.63
2023-02-01T04:20:48.765Z,100497.22
2023-02-01T04:23:24.817Z,100490.00
2023-02-01T04:25:58.383Z,100499.56
2023-02-01T04:28:28.948Z,100509.88
2023-02-01T04:31:00.391Z,100524.63
2023-02-01T04:33:31.528Z,100539.22
2023-02-01T04:36:02.038Z,100544.31
2023-02-01T04:38:33.609Z,100541.38
2023-02-01T04:41:05.692Z,100537.28
2023-02-01T04:43:35.740Z,100541.88
2023-02-01T04:46:06.449Z,100533.84
2023-02-01T04:48:37.064Z,100516.31
2023-02-01T04:51:07.431Z,100508.78
2023-02-01T04:53:38.042Z,100509.59
2023-02-01T04:56:11.420Z,100506.81
2023-02-01T04:58:41.936Z,100517.13
2023-02-01T05:01:12.560Z,100509.94
2023-02-01T05:03:43.398Z,100507.94
2023-02-01T05:06:13.812Z,100511.56
2023-02-01T05:08:44.260Z,100536.31
2023-02-01T05:11:29.701Z,100536.44
2023-02-01T05:14:02.357Z,100538.59
2023-02-01T05:16:32.871Z,100538.72
2023-02-01T05:19:04.150Z,100516.94
2023-02-01T05:21:34.698Z,100528.06
2023-02-01T05:24:15.144Z,100516.09
2023-02-01T05:26:47.594Z,100518.06
2023-02-01T05:29:19.809Z,100521.66
2023-02-01T05:31:51.291Z,100523.66
2023-02-01T05:34:22.134Z,100532.00
2023-02-01T05:36:52.660Z,100540.72
2023-02-01T05:39:23.285Z,100536.59
2023-02-01T05:41:55.213Z,100535.00
2023-02-01T05:44:25.795Z,100536.13
2023-02-01T05:46:55.775Z,100544.81
2023-02-01T05:49:26.200Z,100543.50
2023-02-01T05:51:56.774Z,100540.72
2023-02-01T05:54:27.760Z,100611.19
2023-02-01T05:56:59.071Z,100608.41
2023-02-01T05:59:29.523Z,100582.19
2023-02-01T06:01:59.704Z,100602.50
2023-02-01T06:04:30.677Z,100595.31
2023-02-01T06:07:00.945Z,100590.88
2023-02-01T06:09:31.760Z,100608.25
2023-02-01T06:12:03.950Z,100589.88
2023-02-01T06:14:34.639Z,100565.16
2023-02-01T06:17:04.745Z,100578.75
2023-02-01T06:19:34.608Z,100583.16
2023-02-01T06:22:07.614Z,100592.84
2023-02-01T06:24:38.082Z,100592.50
2023-02-01T06:27:11.038Z,100604.97
2023-02-01T06:29:41.931Z,100617.41
2023-02-01T06:32:12.260Z,100611.19
2023-02-01T06:34:42.719Z,100609.69
2023-02-01T06:37:13.944Z,100628.19
2023-02-01T06:39:44.419Z,100630.00
2023-02-01T06:42:16.528Z,100615.41
2023-02-01T06:44:46.815Z,100635.06
2023-02-01T06:47:17.614Z,100614.91
2023-02-01T06:49:48.932Z,100619.81
2023-02-01T06:52:19.732Z,100628.66
2023-02-01T06:54:50.301Z,100628.19
2023-02-01T06:57:22.726Z,100626.19
2023-02-01T06:59:53.279Z,100630.13
2023-02-01T07:02:23.455Z,100628.50
2023-02-01T07:04:53.940Z,100612.25
2023-02-01T07:07:23.981Z,100611.91
2023-02-01T07:09:55.121Z,100607.31
2023-02-01T07:12:27.382Z,100608.97
2023-02-01T07:14:57.970Z,100605.03
2023-02-01T07:17:27.937Z,100596.00
2023-02-01T07:19:58.213Z,100598.94
2023-02-01T07:22:29.292Z,100607.94
2023-02-01T07:25:01.298Z,100603.16
2023-02-01T07:27:33.897Z,100609.53
2023-02-01T07:30:04.681Z,100598.31
2023-02-01T07:32:35.655Z,100616.81
2023-02-01T07:35:06.284Z,100611.34
2023-02-01T07:37:36.748Z,100617.31
2023-02-01T07:40:08.993Z,100618.44
2023-02-01T07:42:41.421Z,100621.66
2023-02-01T07:45:21.225Z,100628.34
2023-02-01T07:47:52.077Z,100635.03
2023-02-01T07:50:23.261Z,100633.84
2023-02-01T07:52:54.965Z,100638.06
2023-02-01T07:55:26.357Z,100637.53
2023-02-01T07:58:01.948Z,100634.63
2023-02-01T08:00:48.961Z,100644.47
2023-02-01T08:03:19.311Z,100638.31
2023-02-01T08:05:49.706Z,100627.41
2023-02-01T08:08:19.850Z,100637.69
2023-02-01T08:10:51.102Z,100640.53
2023-02-01T08:13:23.358Z,100635.13
2023-02-01T08:15:53.750Z,100639.59
2023-02-01T08:18:24.233Z,100631.59
2023-02-01T08:20:55.515Z,100639.88
2023-02-01T08:23:26.697Z,100620.66
2023-02-01T08:25:57.161Z,100621.72
2023-02-01T08:28:30.196Z,100621.94
2023-02-01T08:31:00.690Z,100618.56
2023-02-01T08:33:31.327Z,100620.44
2023-02-01T08:36:04.076Z,100622.31
2023-02-01T08:38:34.684Z,100608.56
2023-02-01T08:41:09.569Z,100616.72
2023-02-01T08:43:43.811Z,100620.44
2023-02-01T08:46:14.377Z,100608.53
2023-02-01T08:48:46.664Z,100588.22
2023-02-01T08:51:19.191Z,100593.56
2023-02-01T08:53:50.790Z,100590.53
2023-02-01T08:56:23.068Z,100591.09
2023-02-01T08:58:59.588Z,100570.06
2023-02-01T09:01:31.029Z,100583.00
2023-02-01T09:04:01.512Z,100574.72
2023-02-01T09:06:31.953Z,100572.03
2023-02-01T09:09:02.038Z,100581.81
2023-02-01T09:11:31.960Z,100563.94
2023-02-01T09:14:03.909Z,100572.91
2023-02-01T09:16:34.022Z,100579.09
2023-02-01T09:19:25.778Z,100566.00
2023-02-01T09:21:57.599Z,100552.41
2023-02-01T09:24:29.346Z,100551.72
2023-02-01T09:26:59.828Z,100555.44
2023-02-01T09:29:32.993Z,100547.13
2023-02-01T09:32:04.510Z,100547.91
2023-02-01T09:34:35.753Z,100545.50
2023-02-01T09:37:07.258Z,100532.25
2023-02-01T09:39:37.824Z,100529.47
2023-02-01T09:42:24.599Z,100529.94
2023-02-01T09:45:19.327Z,100531.56
2023-02-01T09:47:58.595Z,100533.56
2023-02-01T09:50:39.994Z,100516.00
2023-02-01T09:53:18.870Z,100497.66
2023-02-01T09:55:54.030Z,100509.69
2023-02-01T09:58:34.417Z,100497.66
2023-02-01T10:01:17.645Z,100495.19
2023-02-01T10:03:49.107Z,100486.31
2023-02-01T10:06:45.635Z,100470.66
2023-02-01T10:09:37.820Z,100462.16
2023-02-01T10:12:52.998Z,100464.16
2023-02-01T10:15:41.789Z,100457.63
2023-02-01T10:18:44.862Z,100463.63
2023-02-01T10:21:33.455Z,100453.13
2023-02-01T10:24:26.250Z,100447.78
2023-02-01T10:27:04.707Z,100455.28
2023-02-01T10:29:42.424Z,100423.56
2023-02-01T10:32:18.204Z,100437.81
2023-02-01T10:35:11.614Z,100428.44
2023-02-01T10:37:46.397Z,100423.13
2023-02-01T10:40:27.292Z,100411.81
2023-02-01T10:43:04.411Z,100411.72
2023-02-01T10:45:36.839Z,100408.38
2023-02-01T10:48:09.048Z,100413.88
2023-02-01T10:50:52.633Z,100396.16
2023-02-01T10:53:29.146Z,100379.63
2023-02-01T10:56:00.247Z,100410.69
2023-02-01T10:58:33.645Z,100391.34
2023-02-01T11:01:07.078Z,100384.03
2023-02-01T11:03:43.746Z,100381.09
2023-02-01T11:06:29.923Z,100386.59
2023-02-01T11:09:04.355Z,100367.72
2023-02-01T11:11:34.951Z,100383.59
2023-02-01T11:14:17.558Z,100389.13
2023-02-01T11:16:55.584Z,100396.25
2023-02-01T11:19:26.608Z,100374.56
2023-02-01T11:22:03.308Z,100400.41
2023-02-01T11:24:40.894Z,100415.47
2023-02-01T11:27:27.111Z,100411.41
2023-02-01T11:30:05.467Z,100410.84
2023-02-01T11:32:36.626Z,100396.28
2023-02-01T11:35:09.921Z,100388.59
2023-02-01T11:37:46.018Z,100404.91
2023-02-01T11:40:32.252Z,100407.59
2023-02-01T11:43:12.035Z,100442.72
2023-02-01T11:45:42.982Z,100451.00
2023-02-01T11:48:26.772Z,100450.91
2023-02-01T11:51:24.525Z,100440.97
2023-02-01T11:54:38.074Z,100438.19
2023-02-01T11:57:35.052Z,100413.16
2023-02-01T12:00:30.735Z,100410.47
2023-02-01T12:03:50.059Z,100460.91
2023-02-01T12:06:33.278Z,100440.41
2023-02-01T12:09:36.133Z,100436.31
2023-02-01T12:12:22.279Z,100479.75
2023-02-01T12:15:23.881Z,100485.56
2023-02-01T12:18:42.679Z,100461.00
2023-02-01T12:21:53.312Z,100430.38
2023-02-01T12:25:20.347Z,100459.22
2023-02-01T12:28:44.092Z,100459.31
2023-02-01T12:31:38.005Z,100456.75
2023-02-01T12:34:33.297Z,100453.47
2023-02-01T12:37:19.657Z,100460.25
2023-02-01T12:40:02.225Z,100448.22
2023-02-01T12:42:41.901Z,100452.19
2023-02-01T12:45:28.573Z,100467.31
2023-02-01T12:48:04.217Z,100505.13
2023-02-01T12:50:45.881Z,100502.22
2023-02-01T12:53:26.578Z,100519.16
2023-02-01T12:56:03.349Z,100535.00
2023-02-01T12:58:45.340Z,100522.50
2023-02-01T13:01:24.845Z,100531.09
2023-02-01T13:04:08.168Z,100530.94
2023-02-01T13:06:45.177Z,100528.34
2023-02-01T13:09:29.795Z,100519.53
2023-02-01T13:12:09.793Z,100513.09
2023-02-01T13:14:49.144Z,100505.88
2023-02-01T13:17:26.879Z,100515.75
2023-02-01T13:20:03.887Z,100507.41
2023-02-01T13:22:45.460Z,100510.53
2023-02-01T13:25:22.536Z,100523.34
2023-02-01T13:27:56.804Z,100538.09
2023-02-01T13:30:34.149Z,100542.88
2023-02-01T13:33:53.644Z,100555.53
2023-02-01T13:36:54.429Z,100563.75
2023-02-01T13:40:02.896Z,100563.63
2023-02-01T13:42:37.326Z,100571.19
2023-02-01T13:45:18.919Z,100582.69
2023-02-01T13:47:54.462Z,100587.47
2023-02-01T13:50:36.059Z,100589.41
2023-02-01T13:53:20.191Z,100616.88
2023-02-01T13:55:58.977Z,100571.88
2023-02-01T13:58:37.713Z,100581.03
2023-02-01T14:01:40.992Z,100570.56
2023-02-01T14:04:52.308Z,100560.09
2023-02-01T14:07:26.560Z,100543.69
2023-02-01T14:09:57.077Z,100562.38
2023-02-01T14:13:10.185Z,100557.97
2023-02-01T14:15:40.733Z,100567.84
2023-02-01T14:19:03.281Z,100572.63
2023-02-01T14:21:38.001Z,100588.03
2023-02-01T14:24:26.984Z,100578.03
2023-02-01T14:27:00.324Z,100582.66
2023-02-01T14:29:36.279Z,100574.97
2023-02-01T14:32:14.180Z,100579.25
2023-02-01T14:34:56.424Z,100579.09
2023-02-01T14:37:35.582Z,100583.06
2023-02-01T14:40:19.370Z,100574.69
2023-02-01T14:42:53.211Z,100573.38
2023-02-01T14:45:53.504Z,100566.97
2023-02-01T14:48:50.775Z,100570.09
2023-02-01T14:51:24.247Z,100573.22
2023-02-01T14:53:55.241Z,100572.91
2023-02-01T14:56:30.769Z,100581.41
2023-02-01T14:59:11.493Z,100579.59
2023-02-01T15:01:54.334Z,100581.69
2023-02-01T15:04:29.127Z,100589.41
2023-02-01T15:07:08.502Z,100590.69
2023-02-01T15:09:46.030Z,100599.53
2023-02-01T15:12:28.550Z,100606.75
2023-02-01T15:15:18.493Z,100600.84
2023-02-01T15:17:56.815Z,100611.69
2023-02-01T15:20:28.791Z,100606.09
2023-02-01T15:23:03.182Z,100598.19
2023-02-01T15:25:38.099Z,100598.19
2023-02-01T15:28:18.411Z,100599.03
2023-02-01T15:31:00.311Z,100598.19
2023-02-01T15:33:33.636Z,100596.91
2023-02-01T15:36:15.205Z,100597.25
2023-02-01T15:38:46.811Z,100593.16
2023-02-01T15:41:21.967Z,100603.13
2023-02-01T15:44:22.467Z,100608.72
2023-02-01T15:46:54.304Z,100623.84
2023-02-01T15:49:31.771Z,100629.44
2023-02-01T15:52:05.371Z,100634.66
2023-02-01T15:54:47.889Z,100628.75
2023-02-01T15:57:31.701Z,100640.75
2023-02-01T16:00:09.225Z,100631.22
2023-02-01T16:02:46.073Z,100644.81
2023-02-01T16:05:37.869Z,100650.06
2023-02-01T16:08:14.608Z,100648.09
2023-02-01T16:10:49.574Z,100653.69
2023-02-01T16:13:21.467Z,100650.06
2023-02-01T16:15:54.306Z,100647.25
2023-02-01T16:18:24.345Z,100642.53
2023-02-01T16:20:54.610Z,100659.56
2023-02-01T16:23:25.130Z,100672.38
2023-02-01T16:25:55.584Z,100669.94
2023-02-01T16:28:25.760Z,100666.81
2023-02-01T16:30:58.721Z,100681.59
2023-02-01T16:33:30.165Z,100676.81
2023-02-01T16:36:03.909Z,100671.22
2023-02-01T16:38:34.597Z,100691.91
2023-02-01T16:41:10.462Z,100687.97
2023-02-01T16:43:41.705Z,100682.41
2023-02-01T16:46:21.846Z,100689.63
2023-02-01T16:48:57.876Z,100687.66
2023-02-01T16:51:33.939Z,100701.63
2023-02-01T16:54:05.880Z,100709.50
2023-02-01T16:56:40.813Z,100694.38
2023-02-01T16:59:13.901Z,100694.38
2023-02-01T17:02:13.917Z,100717.03
2023-02-01T17:04:46.739Z,100718.53
2023-02-01T17:07:20.779Z,100724.91
2023-02-01T17:09:52.625Z,100728.53
2023-02-01T17:12:28.091Z,100746.94
2023-02-01T17:14:58.804Z,100760.03
2023-02-01T17:17:39.731Z,100732.97
2023-02-01T17:20:22.294Z,100752.50
2023-02-01T17:22:54.672Z,100755.63
2023-02-01T17:25:26.802Z,100755.63
2023-02-01T17:27:58.053Z,100775.16
2023-02-01T17:30:28.698Z,100778.44
2023-02-01T17:33:05.476Z,100794.53
2023-02-01T17:35:40.895Z,100775.78
2023-02-01T17:38:15.112Z,100789.44
2023-02-01T17:40:45.458Z,100791.88
2023-02-01T17:43:18.592Z,100806.69
2023-02-01T17:45:55.236Z,100795.66
2023-02-01T17:48:29.454Z,100801.69
2023-02-01T17:51:01.442Z,100808.94
2023-02-01T17:53:34.778Z,100804.50
2023-02-01T17:56:05.519Z,100821.25
2023-02-01T17:58:36.356Z,100820.94
2023-02-01T18:01:06.782Z,100822.56
2023-02-01T18:03:39.321Z,100825.50
2023-02-01T18:06:16.716Z,100836.81
2023-02-01T18:08:47.691Z,100835.69
2023-02-01T18:11:22.653Z,100842.56
2023-02-01T18:14:02.174Z,100842.25
2023-02-01T18:16:36.852Z,100848.63
2023-02-01T18:19:09.351Z,100852.22
2023-02-01T18:21:44.177Z,100847.97
2023-02-01T18:24:20.248Z,100862.41
2023-02-01T18:26:52.863Z,100853.22
2023-02-01T18:29:22.810Z,100868.31
2023-02-01T18:31:54.173Z,100883.78
2023-02-01T18:34:27.818Z,100868.19
2023-02-01T18:36:58.400Z,100869.69
2023-02-01T18:39:28.649Z,100873.13
2023-02-01T18:41:59.389Z,100891.84
2023-02-01T18:44:30.213Z,100871.81
2023-02-01T18:47:01.510Z,100860.97
2023-02-01T18:49:34.616Z,100874.13
2023-02-01T18:52:07.436Z,100860.97
2023-02-01T18:54:42.234Z,100874.13
2023-02-01T18:57:21.689Z,100861.31
2023-02-01T18:59:52.076Z,100876.09
2023-02-01T19:02:23.063Z,100923.56
2023-02-01T19:04:55.785Z,100899.91
2023-02-01T19:07:26.363Z,100890.72
2023-02-01T19:09:56.860Z,100881.03
2023-02-01T19:12:27.269Z,100878.56
2023-02-01T19:14:57.752Z,100895.00
2023-02-01T19:17:27.917Z,100902.88
2023-02-01T19:20:00.132Z,100879.25
2023-02-01T19:22:30.983Z,100877.09
2023-02-01T19:25:04.676Z,100858.22
2023-02-01T19:27:35.277Z,100881.19
2023-02-01T19:30:05.960Z,100883.19
2023-02-01T19:32:36.566Z,100874.81
2023-02-01T19:35:11.051Z,100884.34
2023-02-01T19:37:41.928Z,100884.69
2023-02-01T19:40:16.015Z,100876.31
2023-02-01T19:42:46.954Z,100900.91
2023-02-01T19:45:17.927Z,100900.91
2023-02-01T19:47:48.222Z,100896.97
2023-02-01T19:50:24.842Z,100888.28
2023-02-01T19:52:55.806Z,100920.13
2023-02-01T19:55:26.223Z,100906.50
2023-02-01T19:57:56.491Z,100914.06
2023-02-01T20:00:27.358Z,100913.22
2023-02-01T20:02:58.745Z,100926.84
2023-02-01T20:05:32.359Z,100924.91
2023-02-01T20:08:03.576Z,100921.25
2023-02-01T20:10:34.402Z,100935.56
2023-02-01T20:13:07.753Z,100936.22
2023-02-01T20:15:40.893Z,100922.25
2023-02-01T20:18:12.270Z,100935.41
2023-02-01T20:20:45.164Z,100945.41
2023-02-01T20:23:15.639Z,100951.00
2023-02-01T20:25:46.975Z,100939.84
2023-02-01T20:28:17.572Z,100949.34
2023-02-01T20:30:48.667Z,100937.34
2023-02-01T20:33:20.171Z,100927.38
2023-02-01T20:35:53.567Z,100930.16
2023-02-01T20:38:24.870Z,100946.91
2023-02-01T20:40:56.003Z,100928.16
2023-02-01T20:43:26.765Z,100923.41
2023-02-01T20:45:57.439Z,100942.94
2023-02-01T20:48:27.945Z,100951.00
2023-02-01T20:51:02.344Z,100951.31
2023-02-01T20:53:33.320Z,100936.53
2023-02-01T20:56:04.018Z,100946.06
2023-02-01T20:58:34.922Z,100933.25
2023-02-01T21:01:05.664Z,100929.97
2023-02-01T21:03:37.453Z,100931.16
2023-02-01T21:06:12.239Z,100947.88
2023-02-01T21:08:43.675Z,100935.88
2023-02-01T21:11:16.844Z,100938.69
2023-02-01T21:13:52.469Z,100940.31
2023-02-01T21:16:25.091Z,100954.28
2023-02-01T21:18:56.248Z,100933.94
2023-02-01T21:21:28.657Z,100930.47
2023-02-01T21:24:00.325Z,100944.91
2023-02-01T21:26:41.463Z,100952.16
2023-02-01T21:29:19.169Z,100944.56
2023-02-01T21:31:49.855Z,100964.59
2023-02-01T21:34:23.327Z,100963.47
2023-02-01T21:36:55.964Z,100963.97
2023-02-01T21:39:28.277Z,100985.13
2023-02-01T21:42:18.722Z,100963.63
2023-02-01T21:44:49.768Z,100969.53
2023-02-01T21:47:24.186Z,100981.03
2023-02-01T21:49:57.276Z,100986.13
2023-02-01T21:52:31.177Z,100985.28
2023-02-01T21:55:02.072Z,100989.56
2023-02-01T21:57:33.033Z,100993.50
2023-02-01T22:00:02.954Z,100981.03
2023-02-01T22:02:33.302Z,100976.94
2023-02-01T22:05:04.811Z,100982.50
2023-02-01T22:07:38.210Z,100981.69
2023-02-01T22:10:09.860Z,100972.16
2023-02-01T22:12:40.725Z,100994.47
2023-02-01T22:15:11.456Z,101000.41
2023-02-01T22:17:41.604Z,100995.13
2023-02-01T22:20:14.808Z,101010.56
2023-02-01T22:22:50.491Z,100998.91
2023-02-01T22:25:21.275Z,100999.56
2023-02-01T22:28:31.726Z,101002.19
2023-02-01T22:30:44.465Z,101004.78
2023-02-01T22:33:14.924Z,100991.50
2023-02-01T22:35:45.190Z,100986.53
2023-02-01T22:38:18.288Z,100990.47
2023-02-01T22:40:55.271Z,100993.59
2023-02-01T22:43:25.658Z,100994.75
2023-02-01T22:45:57.395Z,100996.38
2023-02-01T22:48:27.483Z,100988.31
2023-02-01T22:51:00.057Z,100990.31
2023-02-01T22:53:35.063Z,100987.53
2023-02-01T22:56:07.045Z,101001.47
2023-02-01T22:58:38.239Z,100996.38
2023-02-01T23:01:10.513Z,100994.41
2023-02-01T23:03:43.043Z,100990.81
2023-02-01T23:06:14.480Z,101000.31
2023-02-01T23:08:47.973Z,100998.69
2023-02-01T23:11:19.427Z,101017.34
2023-02-01T23:13:50.223Z,101014.91
2023-02-01T23:16:21.503Z,101013.25
2023-02-01T23:18:52.448Z,101014.91
2023-02-01T23:21:26.240Z,101019.00
2023-02-01T23:24:01.101Z,101019.50
2023-02-01T23:26:35.314Z,101012.78
2023-02-01T23:29:07.162Z,101025.59
2023-02-01T23:31:38.678Z,101008.84
2023-02-01T23:34:09.525Z,101014.44
2023-02-01T23:36:39.813Z,101010.34
2023-02-01T23:39:12.251Z,101012.28
2023-02-01T23:41:42.439Z,101018.69
2023-02-01T23:44:12.697Z,101032.66
2023-02-01T23:46:50.435Z,101037.88
2023-02-01T23:49:20.875Z,101041.53
2023-02-01T23:51:53.624Z,101028.38
2023-02-01T23:54:26.923Z,101040.34
2023-02-01T23:56:58.444Z,101034.75
2023-02-01T23:59:30.939Z,101041.53
